Time;durP1;ratioP1;P1;durP2;ratioP2;P2;SDS_P1;SDS_P2;PMS_P1;PMS_P2;Temp;Humidity;BMP_temperature;BMP_pressure;BME280_temperature;BME280_humidity;BME280_pressure;Samples;Min_cycle;Max_cycle;Signal;HPM_P1;HPM_P2
2023/01/05 00:00:01;;;;;;;81.68;57.50;;;5.50;99.90;;;;;;5018346;28;20071;-81
2023/01/05 00:02:28;;;;;;;71.40;49.72;;;5.60;99.90;;;;;;5010941;28;20088;-81
2023/01/05 00:04:54;;;;;;;59.92;46.15;;;5.60;99.90;;;;;;5018629;28;20490;-81
2023/01/05 00:07:19;;;;;;;59.40;43.05;;;5.60;99.90;;;;;;5014120;28;20397;-81
2023/01/05 00:09:45;;;;;;;55.60;41.30;;;5.60;99.90;;;;;;5001863;28;20128;-81
2023/01/05 00:23:08;;;;;;;59.20;39.47;;;5.70;99.90;;;;;;5014009;28;20040;-82
2023/01/05 00:25:39;;;;;;;56.70;42.67;;;5.70;99.90;;;;;;4993315;28;20137;-81
2023/01/05 00:28:05;;;;;;;52.58;41.25;;;5.70;99.90;;;;;;4982250;28;20023;-81
2023/01/05 00:30:35;;;;;;;60.80;41.45;;;5.80;99.90;;;;;;4998901;28;20113;-81
2023/01/05 00:33:00;;;;;;;56.47;41.13;;;5.80;99.90;;;;;;4976493;28;20026;-81
2023/01/05 00:35:28;;;;;;;53.78;39.67;;;5.80;99.90;;;;;;4981434;28;20042;-81
2023/01/05 00:37:54;;;;;;;55.55;39.47;;;5.80;99.90;;;;;;4980381;28;20053;-81
2023/01/05 00:40:21;;;;;;;57.60;40.70;;;5.80;99.90;;;;;;4980359;28;20411;-80
2023/01/05 00:42:47;;;;;;;53.42;41.33;;;5.80;99.90;;;;;;4999382;28;20084;-80
2023/01/05 00:45:15;;;;;;;49.05;36.67;;;5.80;99.90;;;;;;4998896;28;20030;-80
2023/01/05 00:47:42;;;;;;;48.85;38.25;;;5.90;99.90;;;;;;4981731;28;20613;-81
2023/01/05 00:50:11;;;;;;;53.90;39.42;;;5.90;99.90;;;;;;4998788;28;20080;-81
2023/01/05 00:52:37;;;;;;;47.03;38.17;;;5.90;99.90;;;;;;4998963;28;20110;-81
2023/01/05 00:55:03;;;;;;;52.58;37.80;;;5.90;99.90;;;;;;4998574;28;20105;-80
2023/01/05 00:57:29;;;;;;;50.78;37.60;;;5.90;99.90;;;;;;4999109;28;20153;-80
2023/01/05 00:59:55;;;;;;;46.80;37.20;;;5.90;99.90;;;;;;4998924;28;20049;-80
2023/01/05 01:02:20;;;;;;;46.65;35.60;;;5.90;99.90;;;;;;4980979;28;20117;-80
2023/01/05 01:04:46;;;;;;;52.70;38.88;;;5.90;99.90;;;;;;4998779;28;20023;-80
2023/01/05 01:07:12;;;;;;;55.42;38.38;;;6.00;99.90;;;;;;4998446;28;20037;-80
2023/01/05 01:09:39;;;;;;;56.20;38.42;;;6.00;99.90;;;;;;4998700;28;20081;-80
2023/01/05 01:12:05;;;;;;;55.47;38.55;;;6.00;99.90;;;;;;4981049;28;20030;-80
2023/01/05 01:14:31;;;;;;;47.58;35.55;;;6.00;99.90;;;;;;4998876;28;20029;-80
2023/01/05 01:16:57;;;;;;;51.78;35.58;;;6.00;99.90;;;;;;4998232;28;20031;-81
2023/01/05 01:19:25;;;;;;;48.17;34.95;;;6.00;99.90;;;;;;4981006;28;20110;-80
2023/01/05 01:21:52;;;;;;;48.00;35.80;;;6.10;99.90;;;;;;4998134;28;20034;-81
2023/01/05 01:24:23;;;;;;;47.28;35.22;;;6.10;99.90;;;;;;4998490;28;20026;-81
2023/01/05 01:26:49;;;;;;;52.72;35.90;;;6.10;99.90;;;;;;4996137;28;20050;-80
2023/01/05 01:29:18;;;;;;;41.47;33.30;;;6.10;99.90;;;;;;5014907;28;20509;-80
2023/01/05 01:31:48;;;;;;;51.45;38.00;;;6.10;99.90;;;;;;5014301;28;20033;-80
2023/01/05 01:34:15;;;;;;;49.08;36.38;;;6.20;99.90;;;;;;5010735;28;20018;-80
2023/01/05 01:36:41;;;;;;;50.53;36.70;;;6.20;99.90;;;;;;4999817;28;20038;-81
2023/01/05 01:39:06;;;;;;;50.55;38.47;;;6.20;99.90;;;;;;4999846;28;20022;-81
2023/01/05 01:41:33;;;;;;;44.97;36.10;;;6.20;99.90;;;;;;4999734;28;20029;-81
2023/01/05 01:43:58;;;;;;;45.60;36.03;;;6.20;99.90;;;;;;5017632;28;20033;-81
2023/01/05 01:46:26;;;;;;;46.67;36.35;;;6.20;99.90;;;;;;4999406;28;20026;-81
2023/01/05 01:48:59;;;;;;;53.67;38.22;;;6.20;99.90;;;;;;5017553;28;20037;-81
2023/01/05 01:51:30;;;;;;;45.78;36.60;;;6.20;99.90;;;;;;4996560;28;20061;-81
2023/01/05 01:54:01;;;;;;;;;;;6.20;99.90;;;;;;5016998;28;20033;-81
2023/01/05 01:56:34;;;;;;;48.78;36.20;;;6.30;99.90;;;;;;5008943;28;19917;-81
2023/01/05 01:59:00;;;;;;;46.40;36.15;;;6.20;99.90;;;;;;4999830;28;20033;-81
2023/01/05 02:01:26;;;;;;;51.83;36.25;;;6.20;99.90;;;;;;5009834;28;20554;-81
2023/01/05 02:03:52;;;;;;;51.53;35.13;;;6.20;99.90;;;;;;5017347;28;20156;-81
2023/01/05 02:06:18;;;;;;;47.90;37.00;;;6.20;99.90;;;;;;4997148;28;20112;-81
2023/01/05 02:08:44;;;;;;;46.58;35.67;;;6.20;99.90;;;;;;4999854;28;20030;-81
2023/01/05 02:11:25;;;;;;;46.70;36.95;;;6.20;99.90;;;;;;5013230;28;20022;-81
2023/01/05 02:14:00;;;;;;;47.13;35.78;;;6.30;99.90;;;;;;5016676;28;20394;-81
2023/01/05 02:17:03;;;;;;;50.15;36.15;;;6.20;99.90;;;;;;5009655;28;20022;-81
2023/01/05 02:19:54;;;;;;;50.60;37.78;;;6.20;99.90;;;;;;5012407;28;20033;-81
2023/01/05 02:22:45;;;;;;;46.88;33.92;;;6.30;99.90;;;;;;4995966;28;20062;-81
2023/01/05 02:25:38;;;;;;;44.60;36.03;;;6.30;99.90;;;;;;4992039;28;20145;-82
2023/01/05 02:28:09;;;;;;;40.80;31.45;;;6.30;99.90;;;;;;4998578;28;20085;-82
2023/01/05 02:30:44;;;;;;;41.00;29.08;;;6.30;99.90;;;;;;5013473;28;20069;-81
2023/01/05 02:33:25;;;;;;;40.30;31.40;;;6.30;99.90;;;;;;4993763;28;20038;-81
2023/01/05 02:36:12;;;;;;;42.05;31.80;;;6.30;99.90;;;;;;5014250;28;20044;-81
2023/01/05 02:38:49;;;;;;;32.65;23.88;;;6.30;99.90;;;;;;5016104;28;20022;-82
2023/01/05 02:41:36;;;;;;;32.20;22.00;;;6.30;99.90;;;;;;5009947;28;20033;-81
2023/01/05 02:44:03;;;;;;;41.95;26.88;;;6.40;99.90;;;;;;5016503;28;20083;-81
2023/01/05 02:46:29;;;;;;;31.33;22.63;;;6.40;99.90;;;;;;5014214;28;20490;-81
2023/01/05 02:48:58;;;;;;;33.03;26.40;;;6.40;99.90;;;;;;5016831;28;20057;-81
2023/01/05 02:51:31;;;;;;;36.47;25.63;;;6.50;99.90;;;;;;4995455;28;20031;-81
2023/01/05 02:54:13;;;;;;;25.58;19.83;;;6.40;99.90;;;;;;5015342;28;20045;-81
2023/01/05 02:56:55;;;;;;;26.60;21.20;;;6.50;99.90;;;;;;4991200;28;20483;-81
2023/01/05 02:59:31;;;;;;;27.45;19.98;;;6.50;99.90;;;;;;5017227;28;20053;-81
2023/01/05 03:02:03;;;;;;;27.70;22.23;;;6.50;99.90;;;;;;4998780;28;20033;-81
2023/01/05 03:04:52;;;;;;;31.05;21.40;;;6.60;99.90;;;;;;5016767;28;20029;-81
2023/01/05 03:07:24;;;;;;;27.48;22.48;;;6.60;99.90;;;;;;4998509;28;20037;-80
2023/01/05 03:09:50;;;;;;;32.40;23.67;;;6.60;99.90;;;;;;4998413;28;20493;-81
2023/01/05 03:15:17;;;;;;;28.05;18.38;;;6.60;99.90;;;;;;5014858;28;20100;-81
2023/01/05 03:17:47;;;;;;;22.48;17.92;;;6.60;99.90;;;;;;5011125;28;20030;-81
2023/01/05 03:20:14;;;;;;;26.42;20.75;;;6.70;99.90;;;;;;5014076;28;20101;-81
2023/01/05 03:37:20;;;;;;;34.25;23.80;;;6.70;99.90;;;;;;4997562;28;20064;-82
2023/01/05 03:39:47;;;;;;;35.15;25.45;;;6.60;99.90;;;;;;5000470;28;20029;-81
2023/01/05 03:42:14;;;;;;;35.30;24.45;;;6.60;99.90;;;;;;4995663;28;20415;-81
2023/01/05 03:44:43;;;;;;;31.48;23.65;;;6.70;99.90;;;;;;4994185;28;20026;-80
2023/01/05 03:47:09;;;;;;;30.02;22.02;;;6.60;99.90;;;;;;4990906;28;20030;-80
2023/01/05 03:49:36;;;;;;;28.52;21.52;;;6.70;99.90;;;;;;5000343;28;20098;-81
2023/01/05 03:52:02;;;;;;;26.42;21.70;;;6.60;99.90;;;;;;4982302;28;20027;-80
2023/01/05 03:54:28;;;;;;;29.48;21.25;;;6.70;99.90;;;;;;4999931;28;20022;-81
2023/01/05 03:56:54;;;;;;;26.30;20.02;;;6.70;99.90;;;;;;4992324;28;20030;-80
2023/01/05 03:59:20;;;;;;;24.88;20.55;;;6.70;99.90;;;;;;5000286;28;20027;-80
2023/01/05 04:01:46;;;;;;;29.15;21.15;;;6.70;99.90;;;;;;4993389;28;20105;-81
2023/01/05 04:04:11;;;;;;;26.73;18.88;;;6.70;99.90;;;;;;4999755;28;20027;-81
2023/01/05 04:06:37;;;;;;;20.67;15.80;;;6.70;99.90;;;;;;4990478;28;20058;-81
2023/01/05 04:09:03;;;;;;;22.70;16.20;;;6.70;99.90;;;;;;5000099;28;20061;-80
2023/01/05 04:11:29;;;;;;;25.02;18.90;;;6.70;99.90;;;;;;4991477;28;20031;-81
2023/01/05 04:13:55;;;;;;;20.42;16.58;;;6.70;99.90;;;;;;4993416;28;20037;-80
2023/01/05 04:16:21;;;;;;;19.33;15.88;;;6.70;99.90;;;;;;4992952;28;20038;-80
2023/01/05 04:18:47;;;;;;;24.90;16.23;;;6.70;99.90;;;;;;4994766;28;20070;-80
2023/01/05 04:21:13;;;;;;;18.60;15.50;;;6.70;99.90;;;;;;4979112;28;20030;-81
2023/01/05 04:23:39;;;;;;;18.45;14.65;;;6.80;99.90;;;;;;4995641;28;20027;-81
2023/01/05 04:26:05;;;;;;;19.73;15.65;;;6.70;99.90;;;;;;5005513;28;20517;-80
2023/01/05 04:28:31;;;;;;;20.30;14.65;;;6.70;99.90;;;;;;5016095;28;20021;-81
2023/01/05 04:30:56;;;;;;;17.90;13.25;;;6.70;99.90;;;;;;5000477;28;20022;-80
2023/01/05 04:33:23;;;;;;;13.25;11.27;;;6.70;99.90;;;;;;5010935;28;20027;-81
2023/01/05 04:35:49;;;;;;;16.52;12.68;;;6.80;99.90;;;;;;5000138;28;20033;-81
2023/01/05 04:38:15;;;;;;;16.73;12.25;;;6.80;99.90;;;;;;5001258;28;20761;-82
2023/01/05 04:40:41;;;;;;;16.48;12.50;;;6.70;99.90;;;;;;5000693;28;20095;-80
2023/01/05 04:43:07;;;;;;;13.95;11.35;;;6.80;99.90;;;;;;5016991;28;20054;-82
2023/01/05 04:45:33;;;;;;;15.77;10.65;;;6.80;99.90;;;;;;5017165;28;20034;-80
2023/01/05 04:47:59;;;;;;;17.25;11.57;;;6.80;99.90;;;;;;5017585;28;20098;-80
2023/01/05 04:50:26;;;;;;;13.10;10.73;;;6.80;99.90;;;;;;5017515;28;20505;-80
2023/01/05 04:52:52;;;;;;;18.35;12.48;;;6.80;99.90;;;;;;5009265;28;20583;-80
2023/01/05 04:55:18;;;;;;;17.58;12.38;;;6.80;99.90;;;;;;5016275;28;20049;-81
2023/01/05 04:57:43;;;;;;;19.00;14.90;;;6.80;99.90;;;;;;5013557;28;21422;-81
2023/01/05 05:00:10;;;;;;;20.52;15.38;;;6.80;99.90;;;;;;4999155;28;20014;-80
2023/01/05 05:02:36;;;;;;;17.38;13.45;;;6.80;99.90;;;;;;5000760;28;20143;-80
2023/01/05 05:05:02;;;;;;;19.42;13.95;;;6.80;99.90;;;;;;5017334;28;20026;-80
2023/01/05 05:07:29;;;;;;;14.43;11.68;;;6.80;99.90;;;;;;5014243;28;20033;-80
2023/01/05 05:09:54;;;;;;;16.35;11.27;;;6.90;99.90;;;;;;5000406;28;20014;-80
2023/01/05 05:12:20;;;;;;;13.00;11.32;;;6.90;99.90;;;;;;5007402;28;20030;-80
2023/01/05 05:14:47;;;;;;;13.00;10.65;;;6.90;99.90;;;;;;5015593;28;20033;-80
2023/01/05 05:17:13;;;;;;;15.25;11.68;;;6.80;99.90;;;;;;5010202;28;20458;-80
2023/01/05 05:19:39;;;;;;;15.88;12.10;;;6.80;99.90;;;;;;5015610;28;20366;-81
2023/01/05 05:22:05;;;;;;;13.60;11.95;;;6.90;99.90;;;;;;4999384;28;20096;-80
2023/01/05 05:24:31;;;;;;;14.68;12.73;;;6.80;99.90;;;;;;4997948;28;20033;-81
2023/01/05 05:26:57;;;;;;;13.77;12.05;;;6.80;99.90;;;;;;4982834;28;20052;-81
2023/01/05 05:29:23;;;;;;;18.13;11.80;;;6.80;99.90;;;;;;4980881;28;20022;-81
2023/01/05 05:31:50;;;;;;;14.30;11.20;;;6.90;99.90;;;;;;4995462;28;20018;-81
2023/01/05 05:34:16;;;;;;;15.40;11.05;;;6.90;99.90;;;;;;4991768;28;20058;-81
2023/01/05 05:36:42;;;;;;;13.25;11.27;;;6.90;99.90;;;;;;4980440;28;20161;-81
2023/01/05 05:39:11;;;;;;;13.35;10.35;;;6.90;99.90;;;;;;4998258;28;20094;-81
2023/01/05 05:41:37;;;;;;;15.95;10.13;;;6.80;99.90;;;;;;4980321;28;20076;-81
2023/01/05 05:44:03;;;;;;;12.82;10.15;;;6.80;99.90;;;;;;4998276;28;20027;-81
2023/01/05 05:46:29;;;;;;;12.23;10.20;;;6.80;99.90;;;;;;4992253;28;20402;-81
2023/01/05 05:48:56;;;;;;;13.40;10.00;;;6.80;99.90;;;;;;4980574;28;20087;-81
2023/01/05 05:51:23;;;;;;;12.80;8.85;;;6.80;99.90;;;;;;4977010;28;20061;-81
2023/01/05 05:53:49;;;;;;;10.90;9.13;;;6.90;99.90;;;;;;4979393;28;20030;-81
2023/01/05 05:56:16;;;;;;;12.90;10.35;;;6.80;99.90;;;;;;4991106;28;20038;-81
2023/01/05 05:58:42;;;;;;;11.10;9.00;;;6.80;99.90;;;;;;4996565;28;20142;-81
2023/01/05 06:01:08;;;;;;;12.73;9.57;;;6.80;99.90;;;;;;4977203;28;20112;-81
2023/01/05 06:03:34;;;;;;;13.57;10.52;;;6.80;99.90;;;;;;4978687;28;20026;-82
2023/01/05 06:06:00;;;;;;;13.15;10.02;;;6.80;99.90;;;;;;4995415;28;20041;-82
2023/01/05 06:08:28;;;;;;;14.32;10.73;;;6.80;99.90;;;;;;4978555;28;20057;-81
2023/01/05 06:10:54;;;;;;;14.38;10.43;;;6.80;99.90;;;;;;4991936;28;20065;-81
2023/01/05 06:13:20;;;;;;;19.02;11.63;;;6.80;99.90;;;;;;4996501;28;20042;-82
2023/01/05 06:15:46;;;;;;;14.60;11.05;;;6.80;99.90;;;;;;4972973;28;20034;-82
2023/01/05 06:18:12;;;;;;;16.63;12.43;;;6.80;99.90;;;;;;4990723;28;20099;-81
2023/01/05 06:20:40;;;;;;;16.48;12.45;;;6.80;99.90;;;;;;4992393;28;20495;-80
2023/01/05 06:23:06;;;;;;;16.52;14.43;;;6.80;99.90;;;;;;4978641;28;20497;-81
2023/01/05 06:25:32;;;;;;;16.73;12.07;;;6.80;99.90;;;;;;4999588;28;20562;-81
2023/01/05 06:27:58;;;;;;;17.35;14.07;;;6.80;99.90;;;;;;5012579;28;20062;-82
2023/01/05 06:30:26;;;;;;;21.10;13.38;;;6.80;99.90;;;;;;4998069;28;20050;-82
2023/01/05 06:32:53;;;;;;;17.45;13.68;;;6.90;99.90;;;;;;5009258;28;20015;-81
2023/01/05 06:35:18;;;;;;;18.20;14.38;;;6.90;99.90;;;;;;5014099;28;20064;-82
2023/01/05 06:37:44;;;;;;;16.80;13.60;;;6.90;99.90;;;;;;5015652;28;20018;-81
2023/01/05 06:40:10;;;;;;;18.98;12.90;;;6.90;99.90;;;;;;5015061;28;20084;-81
2023/01/05 06:42:37;;;;;;;16.48;11.23;;;6.90;99.90;;;;;;5015711;28;20109;-81
2023/01/05 06:45:04;;;;;;;15.77;10.90;;;6.90;99.90;;;;;;5016091;28;20084;-82
2023/01/05 06:47:30;;;;;;;17.10;13.93;;;6.90;99.90;;;;;;5015715;28;20018;-81
2023/01/05 06:49:56;;;;;;;22.00;15.05;;;6.90;99.90;;;;;;5016390;28;20020;-81
2023/01/05 06:52:22;;;;;;;15.05;13.23;;;6.90;99.90;;;;;;5012395;28;20097;-81
2023/01/05 06:54:48;;;;;;;20.70;15.50;;;6.90;99.90;;;;;;5015699;28;20082;-82
2023/01/05 06:57:14;;;;;;;18.73;13.23;;;6.90;99.90;;;;;;4996580;28;20022;-82
2023/01/05 06:59:40;;;;;;;19.40;15.45;;;6.90;99.90;;;;;;5006958;28;20449;-82
2023/01/05 07:02:13;;;;;;;24.95;18.55;;;6.90;99.90;;;;;;5016840;28;20029;-82
2023/01/05 07:04:39;;;;;;;41.15;31.00;;;6.90;99.90;;;;;;5020159;28;20038;-82
2023/01/05 07:07:05;;;;;;;35.47;22.42;;;6.90;99.90;;;;;;5013396;28;20087;-81
2023/01/05 07:09:30;;;;;;;24.42;19.27;;;6.90;99.90;;;;;;5001779;28;20114;-81
2023/01/05 07:11:56;;;;;;;49.05;35.65;;;6.90;99.90;;;;;;5002003;28;20136;-82
2023/01/05 07:14:22;;;;;;;48.80;37.08;;;6.90;99.90;;;;;;5002355;28;20120;-81
2023/01/05 07:16:48;;;;;;;24.02;17.90;;;6.90;99.90;;;;;;5019775;28;20091;-81
2023/01/05 07:19:14;;;;;;;18.60;15.10;;;7.00;99.90;;;;;;5018021;28;20026;-81
2023/01/05 07:21:39;;;;;;;22.48;16.33;;;7.00;99.90;;;;;;5017208;28;20104;-81
2023/01/05 07:24:06;;;;;;;18.13;13.35;;;7.10;99.90;;;;;;5018224;28;20044;-80
2023/01/05 07:26:31;;;;;;;19.45;13.38;;;7.10;99.90;;;;;;5011019;28;20045;-81
2023/01/05 07:28:57;;;;;;;15.25;11.85;;;7.10;99.90;;;;;;5017200;28;20022;-80
2023/01/05 07:31:23;;;;;;;14.73;12.07;;;7.20;99.90;;;;;;5015732;28;20030;-79
2023/01/05 07:33:49;;;;;;;16.75;13.45;;;7.20;99.90;;;;;;4993184;28;20044;-78
2023/01/05 07:36:15;;;;;;;20.38;15.77;;;7.20;99.90;;;;;;5002121;28;20572;-79
2023/01/05 07:38:40;;;;;;;25.38;18.27;;;7.20;99.90;;;;;;5019704;28;20026;-78
2023/01/05 07:41:07;;;;;;;42.55;29.77;;;7.20;99.90;;;;;;5017109;28;20030;-79
2023/01/05 07:43:34;;;;;;;36.33;20.85;;;7.20;99.90;;;;;;5018118;28;20034;-79
2023/01/05 07:46:01;;;;;;;275.42;143.48;;;7.20;99.90;;;;;;4992379;28;20027;-79
2023/01/05 07:48:27;;;;;;;206.70;107.47;;;7.20;99.90;;;;;;5018062;28;20018;-79
2023/01/05 07:51:00;;;;;;;122.88;60.92;;;7.30;99.90;;;;;;5022792;28;20029;-79
2023/01/05 07:53:26;;;;;;;137.30;71.60;;;7.20;99.90;;;;;;5020727;28;20097;-79
2023/01/05 07:55:56;;;;;;;112.28;56.20;;;7.30;99.90;;;;;;5001950;28;20026;-79
2023/01/05 07:58:22;;;;;;;63.53;32.70;;;7.30;99.90;;;;;;5024149;28;20575;-78
2023/01/05 08:00:49;;;;;;;77.88;47.55;;;7.30;99.90;;;;;;5007368;28;20033;-78
2023/01/05 08:03:15;;;;;;;24.25;18.85;;;7.30;99.90;;;;;;4999768;28;20033;-78
2023/01/05 08:05:41;;;;;;;38.75;25.02;;;7.40;99.90;;;;;;5021321;28;20068;-78
2023/01/05 08:08:07;;;;;;;36.45;20.77;;;7.40;99.90;;;;;;5019644;28;20485;-78
2023/01/05 08:10:32;;;;;;;26.55;17.58;;;7.50;99.90;;;;;;5018674;28;20022;-78
2023/01/05 08:15:51;;;;;;;18.15;14.02;;;7.50;99.90;;;;;;5012376;28;20025;-78
2023/01/05 08:18:18;;;;;;;14.15;9.63;;;7.60;99.90;;;;;;5023598;28;20026;-79
2023/01/05 08:20:52;;;;;;;16.48;13.07;;;7.60;99.90;;;;;;5009673;28;20163;-78
2023/01/05 08:23:18;;;;;;;18.60;13.40;;;7.70;99.90;;;;;;5018547;28;20034;-79
2023/01/05 08:25:44;;;;;;;21.35;13.85;;;7.70;99.90;;;;;;5015319;28;20050;-78
2023/01/05 08:28:10;;;;;;;19.15;11.35;;;7.80;99.90;;;;;;5014384;28;20390;-79
2023/01/05 08:30:36;;;;;;;15.50;10.05;;;7.90;99.90;;;;;;5024941;28;20048;-79
2023/01/05 08:33:02;;;;;;;17.35;10.38;;;7.90;99.90;;;;;;5020738;28;20025;-78
2023/01/05 08:35:28;;;;;;;14.80;11.57;;;8.00;99.90;;;;;;5003839;28;20026;-77
2023/01/05 08:37:53;;;;;;;17.50;12.38;;;8.10;99.90;;;;;;5007220;28;20088;-79
2023/01/05 08:40:19;;;;;;;15.25;10.68;;;8.20;99.90;;;;;;5019759;28;20018;-79
2023/01/05 08:42:48;;;;;;;12.52;9.50;;;8.20;99.90;;;;;;5018177;28;20486;-79
2023/01/05 08:45:14;;;;;;;15.48;13.13;;;8.30;99.90;;;;;;5001646;28;20735;-79
2023/01/05 08:47:40;;;;;;;13.00;10.00;;;8.40;99.90;;;;;;5021703;28;20100;-79
2023/01/05 08:50:08;;;;;;;17.40;12.27;;;8.40;99.90;;;;;;5021344;28;20014;-79
2023/01/05 08:52:35;;;;;;;17.27;12.80;;;8.60;99.90;;;;;;5021029;28;20022;-79
2023/01/05 08:55:00;;;;;;;31.25;16.65;;;8.60;99.90;;;;;;5002472;28;20045;-79
2023/01/05 08:57:26;;;;;;;26.80;15.27;;;8.70;99.90;;;;;;5017030;28;20054;-80
2023/01/05 08:59:52;;;;;;;29.98;14.20;;;8.80;99.90;;;;;;5022996;28;20030;-79
2023/01/05 09:02:18;;;;;;;22.27;13.95;;;8.90;99.90;;;;;;5017702;28;20079;-80
2023/01/05 09:04:44;;;;;;;18.70;11.75;;;8.90;99.90;;;;;;5006313;28;20453;-79
2023/01/05 09:07:09;;;;;;;19.95;13.48;;;9.00;99.90;;;;;;5003810;28;20036;-79
2023/01/05 09:09:35;;;;;;;23.65;13.77;;;9.00;99.90;;;;;;5026879;28;20057;-79
2023/01/05 09:12:01;;;;;;;21.23;14.38;;;9.00;99.90;;;;;;5021155;28;20520;-79
2023/01/05 09:14:27;;;;;;;23.20;15.52;;;9.10;99.90;;;;;;5003980;28;20018;-79
2023/01/05 09:16:53;;;;;;;26.00;15.35;;;9.10;99.90;;;;;;5019040;28;20036;-79
2023/01/05 09:19:19;;;;;;;20.95;13.52;;;9.20;99.90;;;;;;5018397;28;20026;-79
2023/01/05 09:21:45;;;;;;;18.33;11.65;;;9.20;99.90;;;;;;5021671;28;20057;-79
2023/01/05 09:24:11;;;;;;;13.32;9.00;;;9.30;99.90;;;;;;5022960;28;20013;-79
2023/01/05 09:26:38;;;;;;;13.05;9.50;;;9.30;99.90;;;;;;5000599;28;20050;-79
2023/01/05 09:29:04;;;;;;;15.73;10.13;;;9.30;99.90;;;;;;5002209;28;20033;-79
2023/01/05 09:31:30;;;;;;;13.63;9.23;;;9.40;99.90;;;;;;5019194;28;20493;-79
2023/01/05 09:33:57;;;;;;;14.63;8.80;;;9.50;99.90;;;;;;5022580;28;20092;-79
2023/01/05 09:36:24;;;;;;;15.20;10.05;;;9.50;99.90;;;;;;5018554;28;20490;-79
2023/01/05 09:38:51;;;;;;;15.32;9.48;;;9.60;99.90;;;;;;5005340;28;20124;-79
2023/01/05 09:41:21;;;;;;;13.27;8.38;;;9.50;99.90;;;;;;4999812;28;20494;-79
2023/01/05 09:43:52;;;;;;;17.40;10.43;;;9.60;99.90;;;;;;5000505;28;20482;-79
2023/01/05 09:46:22;;;;;;;12.73;10.18;;;9.70;99.90;;;;;;5000125;28;20044;-79
2023/01/05 09:48:55;;;;;;;13.55;9.02;;;9.80;99.90;;;;;;5017216;28;20101;-79
2023/01/05 09:51:22;;;;;;;9.57;6.90;;;9.90;99.90;;;;;;5002312;28;20085;-79
2023/01/05 09:53:48;;;;;;;13.02;8.85;;;9.90;99.90;;;;;;5003586;28;20018;-79
2023/01/05 09:56:20;;;;;;;12.73;8.82;;;9.80;99.90;;;;;;5001764;28;20029;-79
2023/01/05 09:58:46;;;;;;;13.25;9.02;;;9.90;99.90;;;;;;5020614;28;20033;-79
2023/01/05 10:01:15;;;;;;;11.10;8.50;;;9.90;99.90;;;;;;5013790;28;20032;-79
2023/01/05 10:03:56;;;;;;;10.15;8.13;;;10.00;99.90;;;;;;5018572;28;20041;-79
2023/01/05 10:06:28;;;;;;;9.73;7.07;;;10.10;99.90;;;;;;4994159;28;20097;-79
2023/01/05 10:08:55;;;;;;;11.18;8.20;;;10.10;99.90;;;;;;5023992;28;20042;-78
2023/01/05 10:14:57;;;;;;;10.47;7.10;;;10.10;99.90;;;;;;5020599;28;20117;-78
2023/01/05 10:17:23;;;;;;;14.18;6.88;;;10.20;99.90;;;;;;4998844;28;20269;-78
2023/01/05 10:19:50;;;;;;;10.65;7.70;;;10.40;99.90;;;;;;5016994;28;20496;-78
2023/01/05 10:22:37;;;;;;;12.27;8.45;;;10.50;99.90;;;;;;4999669;28;20025;-78
2023/01/05 10:25:25;;;;;;;9.55;7.10;;;10.60;99.90;;;;;;4997736;28;20029;-78
2023/01/05 10:27:56;;;;;;;12.88;8.40;;;10.60;99.90;;;;;;4993090;28;20027;-78
2023/01/05 10:30:48;;;;;;;11.70;8.63;;;10.70;99.90;;;;;;5015812;28;20029;-78
2023/01/05 10:33:35;;;;;;;14.75;8.07;;;10.70;99.90;;;;;;5017923;28;20509;-78
2023/01/05 10:36:10;;;;;;;13.88;7.47;;;10.60;99.90;;;;;;5013700;28;20037;-78
2023/01/05 10:39:10;;;;;;;12.68;8.05;;;10.70;99.90;;;;;;5026685;28;20049;-79
2023/01/05 10:42:00;;;;;;;8.07;6.38;;;10.70;99.90;;;;;;5016742;28;20018;-79
2023/01/05 10:44:48;;;;;;;13.32;7.03;;;10.70;99.90;;;;;;5023974;28;20018;-79
2023/01/05 10:47:14;;;;;;;12.75;6.75;;;10.80;99.90;;;;;;5017771;28;20038;-78
2023/01/05 10:49:44;;;;;;;10.88;7.07;;;10.70;99.90;;;;;;5020195;28;20490;-79
2023/01/05 10:52:17;;;;;;;9.57;6.13;;;10.80;99.90;;;;;;4999481;28;20045;-78
2023/01/05 10:54:47;;;;;;;8.65;6.95;;;10.80;99.90;;;;;;5021027;28;20021;-79
2023/01/05 10:57:28;;;;;;;10.47;7.37;;;11.00;99.90;;;;;;4998427;28;20371;-79
2023/01/05 10:59:58;;;;;;;10.35;7.20;;;11.10;99.90;;;;;;5017780;28;20034;-78
2023/01/05 11:02:30;;;;;;;9.52;6.72;;;11.30;99.90;;;;;;5014121;28;20034;-78
2023/01/05 11:05:03;;;;;;;11.70;7.28;;;11.60;99.90;;;;;;5004394;28;20093;-78
2023/01/05 11:07:29;;;;;;;9.88;7.75;;;11.70;99.90;;;;;;4995607;28;20033;-78
2023/01/05 11:09:55;;;;;;;12.30;7.22;;;11.90;99.90;;;;;;5013094;28;20425;-78
2023/01/05 11:12:23;;;;;;;14.18;7.78;;;12.00;99.90;;;;;;5021149;28;20076;-78
2023/01/05 11:14:53;;;;;;;12.80;6.57;;;12.00;99.90;;;;;;5018937;28;20031;-79
2023/01/05 11:17:22;;;;;;;13.07;6.53;;;12.10;99.90;;;;;;4999625;28;20093;-78
2023/01/05 11:19:51;;;;;;;12.43;6.75;;;12.20;99.90;;;;;;5016023;28;20022;-79
2023/01/05 11:22:38;;;;;;;8.98;6.85;;;12.30;99.90;;;;;;5014080;28;20037;-79
2023/01/05 11:25:23;;;;;;;8.68;6.68;;;12.30;99.90;;;;;;4993526;28;20085;-78
2023/01/05 11:28:14;;;;;;;9.15;7.18;;;12.40;99.90;;;;;;4997991;28;20029;-78
2023/01/05 11:30:59;;;;;;;10.23;7.43;;;12.50;99.90;;;;;;5013967;28;20100;-78
2023/01/05 11:33:28;;;;;;;11.73;7.47;;;12.50;99.90;;;;;;5017559;28;20021;-78
2023/01/05 11:35:55;;;;;;;16.45;6.97;;;12.60;99.90;;;;;;4996040;28;20022;-78
2023/01/05 11:38:25;;;;;;;13.68;9.00;;;12.60;99.90;;;;;;5023359;28;20026;-78
2023/01/05 11:40:51;;;;;;;16.73;8.43;;;12.50;99.90;;;;;;5015315;28;20028;-78
2023/01/05 11:43:20;;;;;;;12.77;8.77;;;12.40;99.90;;;;;;5004890;28;20034;-78
2023/01/05 11:45:59;;;;;;;14.95;8.77;;;12.30;99.90;;;;;;4997203;28;20088;-77
2023/01/05 11:48:28;;;;;;;17.45;9.82;;;12.40;99.90;;;;;;5007009;28;20021;-78
2023/01/05 11:50:56;;;;;;;21.13;9.15;;;12.40;99.90;;;;;;4994220;28;20058;-78
2023/01/05 11:53:34;;;;;;;13.20;8.50;;;12.30;99.90;;;;;;5023546;28;20036;-78
2023/01/05 11:56:13;;;;;;;18.92;10.68;;;12.40;99.90;;;;;;5016340;28;20022;-78
2023/01/05 11:58:47;;;;;;;12.60;7.97;;;12.30;99.90;;;;;;5017436;28;20112;-78
2023/01/05 12:01:51;;;;;;;41.28;26.20;;;12.40;99.90;;;;;;5002611;28;20041;-78
2023/01/05 12:04:50;;;;;;;21.27;16.15;;;12.60;99.90;;;;;;5005940;28;20064;-78
2023/01/05 12:07:45;;;;;;;36.80;27.92;;;12.70;99.90;;;;;;4997637;28;20034;-78
2023/01/05 12:10:11;;;;;;;14.18;9.82;;;12.80;99.90;;;;;;5016351;28;20014;-78
2023/01/05 12:13:16;;;;;;;13.65;9.88;;;12.90;99.90;;;;;;4999554;28;20033;-78
2023/01/05 12:16:13;;;;;;;10.95;7.05;;;13.00;99.90;;;;;;4997409;28;20022;-78
2023/01/05 12:19:04;;;;;;;16.63;10.80;;;13.00;99.90;;;;;;4996041;28;20033;-78
2023/01/05 12:21:37;;;;;;;14.65;8.30;;;13.10;99.90;;;;;;5012562;28;20138;-78
2023/01/05 12:24:24;;;;;;;30.33;16.63;;;13.00;99.90;;;;;;5004674;28;20026;-77
2023/01/05 12:27:08;;;;;;;89.22;49.55;;;13.10;99.90;;;;;;5008283;28;20045;-78
2023/01/05 12:30:02;;;;;;;13.00;6.70;;;13.20;99.90;;;;;;5005655;28;20026;-77
2023/01/05 12:33:00;;;;;;;10.95;6.05;;;13.30;99.90;;;;;;4993889;28;20292;-78
2023/01/05 12:35:51;;;;;;;14.52;7.00;;;13.30;99.90;;;;;;5016135;28;20030;-77
2023/01/05 12:38:28;;;;;;;9.27;6.25;;;13.40;99.90;;;;;;5015482;28;20045;-78
2023/01/05 12:41:12;;;;;;;10.18;6.25;;;13.50;99.90;;;;;;4996475;28;20065;-77
2023/01/05 12:44:08;;;;;;;10.43;6.13;;;13.50;99.90;;;;;;4997893;28;20069;-77
2023/01/05 12:46:52;;;;;;;12.93;6.78;;;13.50;99.90;;;;;;5015491;28;20029;-78
2023/01/05 12:49:30;;;;;;;11.07;7.45;;;13.50;99.90;;;;;;4995507;28;20085;-77
2023/01/05 12:52:27;;;;;;;12.23;6.53;;;13.30;99.90;;;;;;5014850;28;20034;-78
2023/01/05 12:55:14;;;;;;;10.13;6.97;;;13.20;99.90;;;;;;5020793;28;20018;-77
2023/01/05 12:57:49;;;;;;;7.78;6.18;;;13.20;99.90;;;;;;5014860;28;20501;-77
2023/01/05 13:00:20;;;;;;;9.60;6.22;;;13.20;99.90;;;;;;4994727;28;20470;-77
2023/01/05 13:03:00;;;;;;;11.02;6.50;;;13.30;99.90;;;;;;5018373;28;20438;-78
2023/01/05 13:05:59;;;;;;;9.60;6.25;;;13.40;99.90;;;;;;5019320;28;20058;-78
2023/01/05 13:08:28;;;;;;;10.77;6.00;;;13.50;99.90;;;;;;5018612;28;20030;-78
2023/01/05 13:11:08;;;;;;;9.25;5.40;;;13.70;99.90;;;;;;5017536;28;20097;-78
2023/01/05 13:13:40;;;;;;;;;;;13.70;99.90;;;;;;5008443;28;20032;-77
2023/01/05 13:16:20;;;;;;;9.93;5.70;;;13.70;99.90;;;;;;4999560;28;19909;-78
2023/01/05 13:18:56;;;;;;;9.00;5.82;;;13.80;99.90;;;;;;5019229;28;20029;-78
2023/01/05 13:21:25;;;;;;;10.55;4.43;;;13.90;99.90;;;;;;5002740;28;20037;-78
2023/01/05 13:23:57;;;;;;;10.68;4.15;;;13.90;99.90;;;;;;5020404;28;20072;-78
2023/01/05 13:26:22;;;;;;;8.80;4.43;;;13.90;99.90;;;;;;5019065;28;20073;-78
2023/01/05 13:28:56;;;;;;;8.40;5.50;;;13.80;99.90;;;;;;5003670;28;20022;-78